Time;durP1;ratioP1;P1;durP2;ratioP2;P2;SDS_P1;SDS_P2;PMS_P1;PMS_P2;Temp;Humidity;BMP_temperature;BMP_pressure;BME280_temperature;BME280_humidity;BME280_pressure;Samples;Min_cycle;Max_cycle;Signal;HPM_P1;HPM_P2
2023/09/04 00:02:24;;;;;;;4.83;4.43;;;16.60;99.90;;;;;;4993383;28;20211;-66
2023/09/04 00:04:52;;;;;;;4.70;4.40;;;16.60;99.90;;;;;;4992706;28;20194;-66
2023/09/04 00:07:17;;;;;;;13.33;10.00;;;16.50;99.90;;;;;;5003003;28;20536;-66
2023/09/04 00:09:43;;;;;;;6.60;6.00;;;16.40;99.90;;;;;;5001831;28;20449;-66
2023/09/04 00:12:08;;;;;;;5.80;5.30;;;16.30;99.90;;;;;;5000706;28;20187;-67
2023/09/04 00:14:34;;;;;;;5.40;4.33;;;16.30;99.90;;;;;;4998471;28;20183;-66
2023/09/04 00:16:59;;;;;;;7.37;6.33;;;16.20;99.90;;;;;;4991547;28;20688;-67
2023/09/04 00:19:25;;;;;;;5.07;4.67;;;16.20;99.90;;;;;;4992945;28;20226;-67
2023/09/04 00:21:50;;;;;;;5.77;5.27;;;16.30;99.90;;;;;;5001965;28;20183;-66
2023/09/04 00:24:17;;;;;;;6.70;6.20;;;16.30;99.90;;;;;;5000735;28;20184;-66
2023/09/04 00:26:42;;;;;;;5.70;5.20;;;16.20;99.90;;;;;;5000552;28;20206;-67
2023/09/04 00:29:08;;;;;;;5.23;4.83;;;16.30;99.90;;;;;;4991228;28;20830;-67
2023/09/04 00:31:34;;;;;;;5.90;5.37;;;16.30;99.90;;;;;;4994286;28;20653;-66
2023/09/04 00:34:00;;;;;;;6.80;5.87;;;16.20;99.90;;;;;;4994069;28;20188;-67
2023/09/04 00:36:25;;;;;;;6.80;5.57;;;16.20;99.90;;;;;;4994902;28;20469;-66
2023/09/04 00:38:51;;;;;;;5.50;5.00;;;16.20;99.90;;;;;;4999601;28;20549;-66
2023/09/04 00:41:18;;;;;;;5.37;4.97;;;16.20;99.90;;;;;;4990332;28;20180;-66
2023/09/04 00:43:44;;;;;;;5.33;4.60;;;16.10;99.90;;;;;;4992965;28;20188;-66
2023/09/04 00:46:11;;;;;;;5.87;5.37;;;16.00;99.90;;;;;;4993794;28;20978;-66
2023/09/04 00:48:39;;;;;;;5.67;5.23;;;16.10;99.90;;;;;;4991717;28;20282;-67
2023/09/04 00:51:05;;;;;;;6.00;5.47;;;16.00;99.90;;;;;;5001682;28;20514;-67
2023/09/04 00:53:31;;;;;;;6.10;5.50;;;16.10;99.90;;;;;;5000020;28;20501;-67
2023/09/04 00:55:59;;;;;;;5.70;5.30;;;16.10;99.90;;;;;;5002153;28;20458;-66
2023/09/04 00:58:24;;;;;;;5.50;5.03;;;16.00;99.90;;;;;;4989341;28;20465;-67
2023/09/04 01:00:50;;;;;;;6.20;5.70;;;16.00;99.90;;;;;;5000141;28;20437;-67
2023/09/04 01:03:16;;;;;;;5.83;5.43;;;16.00;99.90;;;;;;5004412;28;20655;-66
2023/09/04 01:05:41;;;;;;;6.27;5.40;;;15.90;99.90;;;;;;5001280;28;20180;-67
2023/09/04 01:08:07;;;;;;;5.13;4.73;;;15.90;99.90;;;;;;4993343;28;20823;-66
2023/09/04 01:11:00;;;;;;;6.70;5.70;;;15.90;99.90;;;;;;4991300;28;20661;-66
2023/09/04 01:14:03;;;;;;;7.43;5.17;;;15.90;99.90;;;;;;5003716;28;20257;-66
2023/09/04 01:16:29;;;;;;;6.50;5.90;;;16.00;99.90;;;;;;4988743;28;20581;-67
2023/09/04 01:18:55;;;;;;;5.53;5.03;;;16.00;99.90;;;;;;4989415;28;20454;-67
2023/09/04 01:21:20;;;;;;;5.07;4.60;;;16.00;99.90;;;;;;4995988;28;20434;-67
2023/09/04 01:23:46;;;;;;;5.83;5.33;;;16.00;99.90;;;;;;5005644;28;20717;-67
2023/09/04 01:27:04;;;;;;;7.60;5.13;;;16.00;99.90;;;;;;4999412;28;20859;-67
2023/09/04 01:29:35;;;;;;;6.63;6.03;;;15.90;99.90;;;;;;4951591;28;20539;-66
2023/09/04 01:32:10;;;;;;;6.23;5.13;;;15.80;99.90;;;;;;4974096;28;20471;-66
2023/09/04 01:34:43;;;;;;;6.57;5.97;;;15.80;99.90;;;;;;4994679;28;20779;-66
2023/09/04 01:37:09;;;;;;;6.00;5.50;;;15.80;99.90;;;;;;4999940;28;20485;-66
2023/09/04 01:39:36;;;;;;;6.07;5.67;;;15.80;99.90;;;;;;4990111;28;20453;-66
2023/09/04 01:42:02;;;;;;;6.20;5.70;;;15.80;99.90;;;;;;4992623;28;21106;-66
2023/09/04 01:44:27;;;;;;;6.37;5.87;;;15.80;99.90;;;;;;4991977;28;20481;-67
2023/09/04 01:46:53;;;;;;;6.13;5.40;;;15.80;99.90;;;;;;4995625;28;20227;-66
2023/09/04 01:49:18;;;;;;;5.70;5.20;;;15.80;99.90;;;;;;5007404;28;20192;-66
2023/09/04 01:51:44;;;;;;;5.33;4.83;;;15.80;99.90;;;;;;5000750;28;20274;-66
2023/09/04 01:54:10;;;;;;;6.07;5.57;;;15.80;99.90;;;;;;4994812;28;20645;-66
2023/09/04 01:56:35;;;;;;;8.53;7.73;;;15.60;99.90;;;;;;5002976;28;20711;-67
2023/09/04 01:59:01;;;;;;;8.23;7.43;;;15.60;99.90;;;;;;4992054;28;20439;-66
2023/09/04 02:01:27;;;;;;;6.57;5.97;;;15.60;99.90;;;;;;4990452;28;20184;-66
2023/09/04 02:03:54;;;;;;;5.93;5.50;;;15.60;99.90;;;;;;5002565;28;20656;-66
2023/09/04 02:06:20;;;;;;;7.13;6.53;;;15.60;99.90;;;;;;5000574;28;20979;-66
2023/09/04 02:08:46;;;;;;;5.97;5.57;;;15.70;99.90;;;;;;4991708;28;20447;-66
2023/09/04 02:11:11;;;;;;;5.80;5.30;;;15.70;99.90;;;;;;5000042;28;20461;-66
2023/09/04 02:13:37;;;;;;;5.87;5.33;;;15.60;99.90;;;;;;4997510;28;20656;-66
2023/09/04 02:16:02;;;;;;;6.07;5.57;;;15.60;99.90;;;;;;4992851;28;20203;-66
2023/09/04 02:18:28;;;;;;;5.63;4.63;;;15.60;99.90;;;;;;4993311;28;20213;-66
2023/09/04 02:20:53;;;;;;;6.57;5.23;;;15.60;99.90;;;;;;4997888;28;20258;-66
2023/09/04 02:23:19;;;;;;;6.17;5.67;;;15.60;99.90;;;;;;4988960;28;20187;-67
2023/09/04 02:25:48;;;;;;;5.57;5.07;;;15.50;99.90;;;;;;4993097;28;20183;-66
2023/09/04 02:28:15;;;;;;;5.70;5.20;;;15.50;99.90;;;;;;4998324;28;20450;-66
2023/09/04 02:30:40;;;;;;;5.97;5.50;;;15.50;99.90;;;;;;4991507;28;20446;-66
2023/09/04 02:33:06;;;;;;;6.33;5.83;;;15.40;99.90;;;;;;4992718;28;20800;-66
2023/09/04 02:35:32;;;;;;;7.30;5.20;;;15.40;99.90;;;;;;4990577;28;20268;-66
2023/09/04 02:37:57;;;;;;;7.23;6.00;;;15.40;99.90;;;;;;4997784;28;20208;-66
2023/09/04 02:40:23;;;;;;;6.20;5.60;;;15.40;99.90;;;;;;5003384;28;20653;-66
2023/09/04 02:42:48;;;;;;;5.40;5.00;;;15.30;99.90;;;;;;4992900;28;20736;-66
2023/09/04 02:45:14;;;;;;;6.67;6.17;;;15.30;99.90;;;;;;5000718;28;20191;-66
2023/09/04 02:47:39;;;;;;;6.27;5.70;;;15.30;99.90;;;;;;4988563;28;20265;-67
2023/09/04 02:50:06;;;;;;;6.43;4.90;;;15.30;99.90;;;;;;4997703;28;20875;-66
2023/09/04 02:52:32;;;;;;;5.90;5.40;;;15.20;99.90;;;;;;4993132;28;20233;-66
2023/09/04 02:54:57;;;;;;;6.20;5.60;;;15.20;99.90;;;;;;5007464;28;20552;-66
2023/09/04 02:57:23;;;;;;;6.60;5.43;;;15.20;99.90;;;;;;4998353;28;20509;-67
2023/09/04 02:59:49;;;;;;;5.10;4.70;;;15.20;99.90;;;;;;4990418;28;20717;-66
2023/09/04 03:02:14;;;;;;;6.20;5.60;;;15.20;99.90;;;;;;4994334;28;20442;-66
2023/09/04 03:04:40;;;;;;;5.93;5.43;;;15.20;99.90;;;;;;5005972;28;20640;-67
2023/09/04 03:07:06;;;;;;;6.33;5.73;;;15.20;99.90;;;;;;5008042;28;20199;-66
2023/09/04 03:09:32;;;;;;;6.87;6.30;;;15.20;99.90;;;;;;4993660;28;20875;-67
2023/09/04 03:11:59;;;;;;;4.93;4.63;;;15.20;99.90;;;;;;4996373;28;20183;-67
2023/09/04 03:14:24;;;;;;;5.27;4.87;;;15.20;99.90;;;;;;5010852;28;20184;-66
2023/09/04 03:16:50;;;;;;;5.93;5.43;;;15.20;99.90;;;;;;5004402;28;20908;-66
2023/09/04 03:19:15;;;;;;;5.80;5.30;;;15.20;99.90;;;;;;4994931;28;20191;-66
2023/09/04 03:21:41;;;;;;;6.23;5.67;;;15.10;99.90;;;;;;4994253;28;20650;-66
2023/09/04 03:24:07;;;;;;;5.60;5.10;;;15.00;99.90;;;;;;4996437;28;20218;-66
2023/09/04 03:26:32;;;;;;;6.77;5.27;;;14.90;99.90;;;;;;4996017;28;20710;-66
2023/09/04 03:28:58;;;;;;;6.47;5.97;;;15.00;99.90;;;;;;4995452;28;20184;-67
2023/09/04 03:31:23;;;;;;;6.20;5.40;;;14.90;99.90;;;;;;5003612;28;20672;-66
2023/09/04 03:33:49;;;;;;;6.10;5.50;;;14.80;99.90;;;;;;5006387;28;20198;-67
2023/09/04 03:36:14;;;;;;;5.37;4.87;;;14.80;99.90;;;;;;4995759;28;20726;-66
2023/09/04 03:38:40;;;;;;;7.23;6.43;;;14.80;99.90;;;;;;4995234;28;20196;-66
2023/09/04 03:41:05;;;;;;;5.60;5.10;;;14.80;99.90;;;;;;4995090;28;20203;-66
2023/09/04 03:43:33;;;;;;;6.30;5.70;;;14.80;99.90;;;;;;5002067;28;20175;-66
2023/09/04 03:45:58;;;;;;;5.70;4.90;;;14.70;99.90;;;;;;4994070;28;20175;-67
2023/09/04 03:48:24;;;;;;;6.00;5.03;;;14.70;99.90;;;;;;4994349;28;20466;-66
2023/09/04 03:50:49;;;;;;;5.30;4.80;;;14.70;99.90;;;;;;4995365;28;20188;-66
2023/09/04 03:53:15;;;;;;;7.60;5.50;;;14.70;99.90;;;;;;5005499;28;20199;-67
2023/09/04 03:55:40;;;;;;;5.70;5.20;;;14.70;99.90;;;;;;4993372;28;20207;-66
2023/09/04 03:58:06;;;;;;;5.50;4.80;;;14.70;99.90;;;;;;4994599;28;20210;-67
2023/09/04 04:00:31;;;;;;;5.73;5.10;;;14.70;99.90;;;;;;5000339;28;20198;-66
2023/09/04 04:02:57;;;;;;;4.60;4.20;;;14.70;99.90;;;;;;4992831;28;20270;-66
2023/09/04 04:05:23;;;;;;;7.37;5.40;;;14.70;99.90;;;;;;5004530;28;20653;-66
2023/09/04 04:07:49;;;;;;;6.13;5.53;;;14.60;99.90;;;;;;4999483;28;20234;-66
2023/09/04 04:10:15;;;;;;;6.43;5.27;;;14.60;99.90;;;;;;5007442;28;20468;-66
2023/09/04 04:12:41;;;;;;;7.73;4.90;;;14.60;99.90;;;;;;4993290;28;20645;-66
2023/09/04 04:15:07;;;;;;;6.50;5.90;;;14.50;99.90;;;;;;4993910;28;20524;-66
2023/09/04 04:17:34;;;;;;;10.23;5.20;;;14.50;99.90;;;;;;4993616;28;20215;-67
2023/09/04 04:19:59;;;;;;;6.80;6.30;;;14.50;99.90;;;;;;4993323;28;20439;-66
2023/09/04 04:22:25;;;;;;;6.30;5.80;;;14.50;99.90;;;;;;4995910;28;20517;-66
2023/09/04 04:24:51;;;;;;;6.47;5.80;;;14.50;99.90;;;;;;5003031;28;20321;-67
2023/09/04 04:27:17;;;;;;;6.33;5.47;;;14.50;99.90;;;;;;4999462;28;20283;-67
2023/09/04 04:29:48;;;;;;;6.20;5.60;;;14.50;99.90;;;;;;5002487;28;20183;-66
2023/09/04 04:32:14;;;;;;;5.80;5.30;;;14.50;99.90;;;;;;4986967;28;20295;-66
2023/09/04 04:34:41;;;;;;;5.70;5.20;;;14.50;99.90;;;;;;4993899;28;20443;-66
2023/09/04 04:37:07;;;;;;;5.80;5.10;;;14.50;99.90;;;;;;4992405;28;20446;-66
2023/09/04 04:39:32;;;;;;;5.93;5.43;;;14.40;99.90;;;;;;4998115;28;20487;-66
2023/09/04 04:41:58;;;;;;;5.13;4.77;;;14.40;99.90;;;;;;4998009;28;20430;-66
2023/09/04 04:44:24;;;;;;;6.10;5.47;;;14.40;99.90;;;;;;5000602;28;20621;-67
2023/09/04 04:46:49;;;;;;;5.37;4.87;;;14.40;99.90;;;;;;4996541;28;20556;-66
2023/09/04 04:49:21;;;;;;;5.30;4.90;;;14.40;99.90;;;;;;5003413;28;20206;-67
2023/09/04 04:51:47;;;;;;;7.77;5.33;;;14.30;99.90;;;;;;4994641;28;20183;-66
2023/09/04 04:54:13;;;;;;;6.17;5.57;;;14.30;99.90;;;;;;4993500;28;20811;-66
2023/09/04 04:56:41;;;;;;;7.70;5.40;;;14.30;99.90;;;;;;4999964;28;20198;-66
2023/09/04 04:59:08;;;;;;;6.50;5.87;;;14.40;99.90;;;;;;4993056;28;20184;-66
2023/09/04 05:01:34;;;;;;;5.80;5.40;;;14.40;99.90;;;;;;4982407;28;20438;-67
2023/09/04 05:03:59;;;;;;;6.00;5.20;;;14.40;99.90;;;;;;4998373;28;20449;-66
2023/09/04 05:06:25;;;;;;;6.23;5.63;;;14.40;99.90;;;;;;4994447;28;20203;-67
2023/09/04 05:08:51;;;;;;;7.73;7.03;;;14.40;99.90;;;;;;4990621;28;20183;-66
2023/09/04 05:11:17;;;;;;;7.67;6.87;;;14.50;99.90;;;;;;4994664;28;20188;-66
2023/09/04 05:13:42;;;;;;;8.00;6.17;;;14.40;99.90;;;;;;4997921;28;20430;-67
2023/09/04 05:16:08;;;;;;;6.67;6.07;;;14.50;99.90;;;;;;4994174;28;20562;-66
2023/09/04 05:18:34;;;;;;;6.13;5.53;;;14.60;99.90;;;;;;4991955;28;20203;-66
2023/09/04 05:21:00;;;;;;;8.20;4.93;;;14.70;99.90;;;;;;4993891;28;20167;-66
2023/09/04 05:23:25;;;;;;;5.73;5.23;;;14.80;99.90;;;;;;4993768;28;20744;-66
2023/09/04 05:25:52;;;;;;;6.03;5.43;;;15.00;99.90;;;;;;5003518;28;20437;-66
2023/09/04 05:28:18;;;;;;;6.27;5.67;;;15.10;99.90;;;;;;4993940;28;20695;-66
2023/09/04 05:30:44;;;;;;;6.00;5.40;;;15.20;99.90;;;;;;5001293;28;20445;-66
2023/09/04 05:33:09;;;;;;;7.80;5.47;;;15.30;99.90;;;;;;4992234;28;20195;-66
2023/09/04 05:35:35;;;;;;;5.97;5.37;;;15.40;99.90;;;;;;4994933;28;20226;-66
2023/09/04 05:38:01;;;;;;;5.87;5.27;;;15.60;99.90;;;;;;4993558;28;20207;-66
2023/09/04 05:40:26;;;;;;;6.40;5.83;;;15.70;99.90;;;;;;5001274;28;20168;-66
2023/09/04 05:42:52;;;;;;;5.93;5.37;;;15.90;99.90;;;;;;4992230;28;20535;-66
2023/09/04 05:45:19;;;;;;;5.60;5.10;;;16.10;99.90;;;;;;5001012;28;20180;-66
2023/09/04 05:47:46;;;;;;;6.53;5.30;;;16.30;99.90;;;;;;4992208;28;20202;-66
2023/09/04 05:50:11;;;;;;;6.10;5.60;;;16.50;99.90;;;;;;4986872;28;20505;-67
2023/09/04 05:52:37;;;;;;;7.50;5.40;;;16.70;99.90;;;;;;4997767;28;20435;-67
2023/09/04 05:55:03;;;;;;;7.83;6.40;;;16.90;99.90;;;;;;4993173;28;20227;-69
2023/09/04 05:57:29;;;;;;;6.23;5.63;;;17.00;99.90;;;;;;4998214;28;20282;-67
2023/09/04 05:59:54;;;;;;;6.03;5.60;;;17.10;99.90;;;;;;5000055;28;20577;-67
2023/09/04 06:02:20;;;;;;;5.50;5.10;;;17.30;99.90;;;;;;4992254;28;20187;-68
2023/09/04 06:04:45;;;;;;;7.10;6.40;;;17.50;99.90;;;;;;4992188;28;20211;-67
2023/09/04 06:07:11;;;;;;;7.77;7.07;;;17.70;99.90;;;;;;4999362;28;20203;-68
2023/09/04 06:09:40;;;;;;;5.60;5.10;;;17.90;99.90;;;;;;4997409;28;20693;-66
2023/09/04 06:12:10;;;;;;;6.43;5.63;;;18.10;99.90;;;;;;4991338;28;20566;-67
2023/09/04 06:14:36;;;;;;;6.30;5.70;;;18.30;99.90;;;;;;4989860;28;20833;-66
2023/09/04 06:17:01;;;;;;;5.90;5.40;;;18.40;99.90;;;;;;4991552;28;20471;-67
2023/09/04 06:19:27;;;;;;;5.80;5.30;;;18.50;99.90;;;;;;4985586;28;20195;-66
2023/09/04 06:21:54;;;;;;;9.93;5.80;;;18.70;99.90;;;;;;4995765;28;20190;-67
2023/09/04 06:24:19;;;;;;;5.57;4.80;;;18.90;99.90;;;;;;4991616;28;20434;-66
2023/09/04 06:26:45;;;;;;;6.10;5.50;;;19.20;99.90;;;;;;5012402;28;20437;-67
2023/09/04 06:29:10;;;;;;;6.13;5.53;;;19.30;99.90;;;;;;5011845;28;20174;-67
2023/09/04 06:31:36;;;;;;;6.40;5.90;;;19.50;99.90;;;;;;5004219;28;20215;-66
2023/09/04 06:34:03;;;;;;;6.40;5.80;;;19.80;99.90;;;;;;4983495;28;20195;-66
2023/09/04 06:36:29;;;;;;;6.03;5.53;;;19.90;99.90;;;;;;4997231;28;20581;-65
2023/09/04 06:38:54;;;;;;;5.43;4.93;;;20.10;99.90;;;;;;4971999;28;20424;-66
2023/09/04 06:41:21;;;;;;;6.43;5.00;;;20.30;99.90;;;;;;4973297;28;20433;-66
2023/09/04 06:43:47;;;;;;;7.07;6.37;;;20.50;99.90;;;;;;4973476;28;20173;-66
2023/09/04 06:46:13;;;;;;;6.33;5.80;;;20.70;99.90;;;;;;4992195;28;20859;-66
2023/09/04 06:48:39;;;;;;;5.80;5.30;;;20.80;99.90;;;;;;5004160;28;20437;-66
2023/09/04 06:51:05;;;;;;;6.27;5.77;;;20.90;99.90;;;;;;4990475;28;20454;-67
2023/09/04 06:53:30;;;;;;;6.33;5.87;;;21.00;99.90;;;;;;4992063;28;20233;-67
2023/09/04 06:55:56;;;;;;;6.20;5.70;;;21.10;99.90;;;;;;4997300;28;20221;-66
2023/09/04 06:58:22;;;;;;;7.60;7.00;;;21.20;99.90;;;;;;5002528;28;20195;-66
2023/09/04 07:00:48;;;;;;;7.47;6.80;;;21.30;99.90;;;;;;5012006;28;20182;-65
2023/09/04 07:03:13;;;;;;;6.40;5.80;;;21.50;99.90;;;;;;5011900;28;20611;-67
2023/09/04 07:05:39;;;;;;;6.30;5.80;;;21.70;99.90;;;;;;5008309;28;20185;-68
2023/09/04 07:08:05;;;;;;;5.50;5.00;;;21.60;99.90;;;;;;5003554;28;20203;-66
2023/09/04 07:10:31;;;;;;;7.90;7.20;;;21.90;99.90;;;;;;5011181;28;20228;-65
2023/09/04 07:12:58;;;;;;;6.10;5.60;;;22.10;99.90;;;;;;5011731;28;20418;-67
2023/09/04 07:15:24;;;;;;;5.67;5.20;;;22.40;99.90;;;;;;5011793;28;20556;-67
2023/09/04 07:17:49;;;;;;;6.27;5.77;;;22.60;99.90;;;;;;4991096;28;20552;-67
2023/09/04 07:20:15;;;;;;;6.20;5.70;;;22.80;99.90;;;;;;4999366;28;20271;-67
2023/09/04 07:22:40;;;;;;;5.40;4.90;;;22.90;99.90;;;;;;4992377;28;20167;-67
2023/09/04 07:25:06;;;;;;;5.53;5.13;;;23.10;99.90;;;;;;4991984;28;20175;-67
2023/09/04 07:27:32;;;;;;;5.77;5.37;;;23.30;99.90;;;;;;4992868;28;20195;-67
2023/09/04 07:29:58;;;;;;;6.00;5.40;;;23.40;99.90;;;;;;5000122;28;20488;-67
2023/09/04 07:32:25;;;;;;;5.73;5.30;;;23.60;99.90;;;;;;5000956;28;20172;-67
2023/09/04 07:34:56;;;;;;;6.00;5.30;;;23.60;99.90;;;;;;5011076;28;20418;-66
2023/09/04 07:37:25;;;;;;;5.27;4.87;;;23.90;99.90;;;;;;5010836;28;20469;-66
2023/09/04 07:39:51;;;;;;;5.10;4.57;;;24.00;99.90;;;;;;5009798;28;20839;-66
2023/09/04 07:42:17;;;;;;;5.67;5.23;;;24.10;99.90;;;;;;5015988;28;20422;-67
2023/09/04 07:44:43;;;;;;;7.10;5.40;;;24.30;99.90;;;;;;5011755;28;20413;-67
2023/09/04 07:47:08;;;;;;;5.23;4.83;;;24.40;99.90;;;;;;5012572;28;20434;-67
2023/09/04 07:49:34;;;;;;;5.40;4.90;;;24.60;99.90;;;;;;5014586;28;20202;-66
2023/09/04 07:51:59;;;;;;;6.10;5.60;;;24.60;99.90;;;;;;5015272;28;20210;-67
2023/09/04 07:54:25;;;;;;;4.80;4.50;;;24.60;99.90;;;;;;5003662;28;20190;-67
2023/09/04 07:56:50;;;;;;;6.13;5.63;;;24.80;99.90;;;;;;5009339;28;20707;-67
2023/09/04 07:59:16;;;;;;;6.20;5.27;;;24.90;99.90;;;;;;5014397;28;20174;-66
2023/09/04 08:01:41;;;;;;;5.07;4.60;;;24.80;99.90;;;;;;5009249;28;20202;-66
2023/09/04 08:04:07;;;;;;;5.67;5.27;;;25.00;99.90;;;;;;5006071;28;20687;-66
2023/09/04 08:06:33;;;;;;;5.73;4.73;;;25.10;99.90;;;;;;5007117;28;20178;-67
2023/09/04 08:08:58;;;;;;;5.67;5.17;;;25.10;99.90;;;;;;5014153;28;20186;-67
2023/09/04 08:11:24;;;;;;;5.47;5.07;;;25.10;99.90;;;;;;5011093;28;20194;-67
2023/09/04 08:13:49;;;;;;;5.83;4.00;;;25.30;99.90;;;;;;5005444;28;20202;-67
2023/09/04 08:16:15;;;;;;;6.50;5.20;;;25.70;99.90;;;;;;4994849;28;20203;-67
2023/09/04 08:18:40;;;;;;;5.37;4.97;;;25.80;99.90;;;;;;4992960;28;20211;-67
2023/09/04 08:21:06;;;;;;;5.37;4.70;;;25.90;99.90;;;;;;4995345;28;20180;-67
2023/09/04 08:23:32;;;;;;;5.13;4.83;;;26.00;99.90;;;;;;4997491;28;20229;-68
2023/09/04 08:26:01;;;;;;;5.13;4.53;;;26.10;99.90;;;;;;5006446;28;20583;-67
2023/09/04 08:28:27;;;;;;;4.60;4.30;;;26.30;99.90;;;;;;5013969;28;20249;-66
2023/09/04 08:30:52;;;;;;;4.70;4.30;;;26.70;99.90;;;;;;5014423;28;20930;-67
2023/09/04 08:33:18;;;;;;;5.17;4.77;;;26.80;99.90;;;;;;5014572;28;20179;-67
2023/09/04 08:35:43;;;;;;;5.70;4.43;;;27.00;99.10;;;;;;5002251;28;20207;-68
2023/09/04 08:38:09;;;;;;;4.63;4.23;;;26.90;99.00;;;;;;5001511;28;20296;-67
2023/09/04 08:40:39;;;;;;;4.10;3.80;;;26.50;99.50;;;;;;4994427;28;20172;-66
2023/09/04 08:43:06;;;;;;;4.67;4.27;;;26.90;98.90;;;;;;4994863;28;20245;-67
2023/09/04 08:45:33;;;;;;;4.83;4.43;;;27.20;98.20;;;;;;4994455;28;20947;-67
2023/09/04 08:48:02;;;;;;;5.03;4.60;;;27.50;97.10;;;;;;5000295;28;20462;-67
2023/09/04 08:50:28;;;;;;;4.90;4.60;;;27.80;95.80;;;;;;4997643;28;20548;-66
2023/09/04 08:52:53;;;;;;;4.70;4.33;;;27.70;93.80;;;;;;5004602;28;21181;-67
2023/09/04 08:55:22;;;;;;;4.90;4.60;;;27.70;93.90;;;;;;5005809;28;20462;-69
2023/09/04 08:57:48;;;;;;;5.87;4.70;;;27.70;93.70;;;;;;5013799;28;20199;-69
2023/09/04 09:00:16;;;;;;;5.23;4.93;;;27.70;94.10;;;;;;4988588;28;21262;-69
2023/09/04 09:02:45;;;;;;;7.10;4.73;;;27.90;92.60;;;;;;4986799;28;20442;-68
2023/09/04 09:05:16;;;;;;;4.40;4.10;;;28.00;92.20;;;;;;5005433;28;20464;-68
2023/09/04 09:07:42;;;;;;;4.90;4.60;;;28.10;91.20;;;;;;5013740;28;20448;-68
2023/09/04 09:10:11;;;;;;;4.80;4.47;;;28.30;90.70;;;;;;5013096;28;20417;-68
2023/09/04 09:12:37;;;;;;;5.83;4.53;;;28.20;90.50;;;;;;5013671;28;20179;-69
2023/09/04 09:15:02;;;;;;;4.13;3.93;;;27.90;90.60;;;;;;5008975;28;20811;-68
2023/09/04 09:17:28;;;;;;;5.47;4.80;;;28.00;90.30;;;;;;5005218;28;20710;-69
2023/09/04 09:19:54;;;;;;;4.27;3.97;;;28.40;88.70;;;;;;5013131;28;20225;-69
2023/09/04 09:22:21;;;;;;;4.93;4.63;;;28.30;88.90;;;;;;5013516;28;20179;-69
2023/09/04 09:25:01;;;;;;;4.80;4.50;;;28.40;87.90;;;;;;5010591;28;20179;-68
2023/09/04 09:27:31;;;;;;;5.13;4.73;;;28.50;86.30;;;;;;5005269;28;20980;-69
2023/09/04 09:29:59;;;;;;;4.70;4.30;;;29.10;86.10;;;;;;5012840;28;20425;-68
2023/09/04 09:32:31;;;;;;;4.80;4.43;;;29.50;83.40;;;;;;5013450;28;20847;-68
2023/09/04 09:34:58;;;;;;;4.93;4.43;;;30.70;78.60;;;;;;5013298;28;20433;-69
2023/09/04 09:37:26;;;;;;;4.90;4.60;;;30.30;76.10;;;;;;5007358;28;20797;-68
2023/09/04 09:39:52;;;;;;;4.70;4.10;;;30.20;75.50;;;;;;5006802;28;20429;-69
2023/09/04 09:42:20;;;;;;;4.90;4.60;;;29.90;76.20;;;;;;5013218;28;20414;-69
2023/09/04 09:44:46;;;;;;;3.80;3.60;;;30.40;71.90;;;;;;5013154;28;20418;-69
2023/09/04 09:47:12;;;;;;;4.80;4.50;;;30.80;71.10;;;;;;5009932;28;20951;-69
2023/09/04 09:49:40;;;;;;;4.60;4.30;;;30.80;70.60;;;;;;4993275;28;20448;-69
2023/09/04 09:52:10;;;;;;;4.60;4.30;;;30.30;72.10;;;;;;4991867;28;20439;-69
2023/09/04 09:54:35;;;;;;;4.97;4.67;;;31.10;70.10;;;;;;4985783;28;20432;-70
2023/09/04 09:57:03;;;;;;;3.77;3.57;;;31.80;69.50;;;;;;4986202;28;20468;-68
2023/09/04 09:59:32;;;;;;;4.40;4.10;;;32.70;64.70;;;;;;4985080;28;20642;-68
2023/09/04 10:01:58;;;;;;;4.03;3.73;;;33.00;62.00;;;;;;4989461;28;20454;-69
2023/09/04 10:04:24;;;;;;;4.77;4.37;;;32.80;60.70;;;;;;4989761;28;20633;-70
2023/09/04 10:06:53;;;;;;;3.87;3.50;;;32.80;58.90;;;;;;4998923;28;20446;-65
2023/09/04 10:09:23;;;;;;;4.50;4.20;;;32.40;58.60;;;;;;4992055;28;20423;-67
2023/09/04 10:11:59;;;;;;;3.90;3.47;;;32.90;58.50;;;;;;4993357;28;20415;-66
2023/09/04 10:14:39;;;;;;;4.73;4.43;;;33.70;58.70;;;;;;4995392;28;20434;-66
2023/09/04 10:17:08;;;;;;;4.90;4.60;;;34.50;57.10;;;;;;4996571;28;21061;-66
2023/09/04 10:19:37;;;;;;;4.50;4.17;;;34.60;56.10;;;;;;4992509;28;20879;-67
2023/09/04 10:22:06;;;;;;;4.90;4.50;;;34.90;54.00;;;;;;4993086;28;20422;-67
2023/09/04 10:24:58;;;;;;;4.27;3.97;;;35.10;52.80;;;;;;4995235;28;20496;-66
2023/09/04 10:27:26;;;;;;;5.47;5.07;;;35.30;51.70;;;;;;5004375;28;20807;-68
2023/09/04 10:30:16;;;;;;;3.90;3.60;;;35.20;51.20;;;;;;5011886;28;20421;-67
2023/09/04 10:32:43;;;;;;;4.60;4.20;;;35.60;50.00;;;;;;5012742;28;20460;-67
2023/09/04 10:35:09;;;;;;;4.20;3.90;;;35.70;49.60;;;;;;5004472;28;20518;-66
2023/09/04 10:37:37;;;;;;;4.00;3.73;;;36.00;48.80;;;;;;4985109;28;20458;-65
2023/09/04 10:40:05;;;;;;;4.10;3.80;;;36.60;48.20;;;;;;4987710;28;20418;-65
2023/09/04 10:42:33;;;;;;;4.90;4.60;;;37.00;47.00;;;;;;4983319;28;20936;-66
2023/09/04 10:45:14;;;;;;;4.30;4.10;;;36.60;46.70;;;;;;4983264;28;20420;-67
2023/09/04 10:47:47;;;;;;;4.27;3.97;;;37.30;46.50;;;;;;4983272;28;20880;-66
2023/09/04 10:50:34;;;;;;;4.10;3.70;;;37.40;44.70;;;;;;4986645;28;20446;-67
2023/09/04 10:53:02;;;;;;;4.20;3.90;;;37.10;44.30;;;;;;4991605;28;20430;-66
2023/09/04 10:55:28;;;;;;;4.27;4.07;;;38.10;44.00;;;;;;5009808;28;20454;-67
2023/09/04 10:57:55;;;;;;;3.80;3.60;;;38.80;42.20;;;;;;4989270;28;21034;-67
2023/09/04 11:00:34;;;;;;;4.63;4.23;;;38.60;41.60;;;;;;4987904;28;20445;-67
2023/09/04 11:03:17;;;;;;;4.50;4.20;;;38.80;40.60;;;;;;4995838;28;20958;-66
2023/09/04 11:06:01;;;;;;;3.83;3.63;;;39.30;40.50;;;;;;4973054;28;20415;-67
2023/09/04 11:08:28;;;;;;;4.10;3.90;;;39.40;40.00;;;;;;4972135;28;20984;-67
2023/09/04 11:11:05;;;;;;;4.40;4.20;;;40.50;39.40;;;;;;4990301;28;20434;-67
2023/09/04 11:13:36;;;;;;;4.50;4.20;;;40.50;38.40;;;;;;5003479;28;20433;-67
2023/09/04 11:16:04;;;;;;;4.23;3.97;;;40.70;37.70;;;;;;5011865;28;20544;-65
2023/09/04 11:18:31;;;;;;;4.40;4.10;;;41.30;37.20;;;;;;5011907;28;20516;-64
2023/09/04 11:20:58;;;;;;;4.10;3.90;;;41.50;35.60;;;;;;5011951;28;20429;-64
2023/09/04 11:23:24;;;;;;;3.73;3.43;;;39.90;36.50;;;;;;5010410;28;20434;-64
2023/09/04 11:25:53;;;;;;;3.87;3.67;;;39.30;36.50;;;;;;5002018;28;20438;-64
2023/09/04 11:28:22;;;;;;;3.80;3.57;;;40.00;36.00;;;;;;4995830;28;20720;-64
2023/09/04 11:30:52;;;;;;;4.90;3.97;;;39.90;34.60;;;;;;4996420;28;20422;-64
2023/09/04 11:33:20;;;;;;;4.50;4.20;;;39.30;35.30;;;;;;4995964;28;20450;-64
2023/09/04 11:36:06;;;;;;;3.70;3.50;;;39.60;35.30;;;;;;4994900;28;20462;-64
2023/09/04 11:38:33;;;;;;;4.17;3.87;;;39.00;34.60;;;;;;4995002;28;20919;-64
2023/09/04 11:40:58;;;;;;;3.60;3.40;;;39.10;35.30;;;;;;4996160;28;20521;-64
2023/09/04 11:43:26;;;;;;;3.93;3.73;;;38.80;35.90;;;;;;4995850;28;20983;-64
2023/09/04 11:45:55;;;;;;;5.70;3.30;;;39.40;34.80;;;;;;5002482;28;20179;-64
2023/09/04 11:48:23;;;;;;;5.53;4.37;;;39.00;34.50;;;;;;5013453;28;20449;-64
2023/09/04 11:50:49;;;;;;;4.10;3.90;;;39.10;35.40;;;;;;5015408;28;20776;-64
2023/09/04 11:53:15;;;;;;;3.77;3.50;;;40.00;34.20;;;;;;5006620;28;20581;-64
2023/09/04 11:55:40;;;;;;;3.33;3.13;;;41.00;33.20;;;;;;5002432;28;20480;-64
2023/09/04 11:58:06;;;;;;;4.60;4.20;;;41.10;32.50;;;;;;4995069;28;20191;-64
2023/09/04 12:00:31;;;;;;;3.93;3.63;;;40.80;32.00;;;;;;4984139;28;20671;-64
2023/09/04 12:02:57;;;;;;;3.43;3.13;;;40.00;33.00;;;;;;4979636;28;20168;-64
2023/09/04 12:05:23;;;;;;;3.57;3.37;;;39.60;32.60;;;;;;5001560;28;20271;-64
2023/09/04 12:07:48;;;;;;;4.20;4.00;;;40.00;32.60;;;;;;5014915;28;20340;-64
2023/09/04 12:10:14;;;;;;;3.97;3.67;;;40.20;32.40;;;;;;5009938;28;20199;-64
2023/09/04 12:12:40;;;;;;;3.60;3.40;;;41.20;31.80;;;;;;4995039;28;20575;-64
2023/09/04 12:15:06;;;;;;;3.83;3.50;;;40.70;31.30;;;;;;5010905;28;20512;-64
2023/09/04 12:17:32;;;;;;;3.87;3.67;;;41.20;31.50;;;;;;5013892;28;20206;-64
2023/09/04 12:20:01;;;;;;;3.60;3.40;;;41.50;30.60;;;;;;4992088;28;20418;-64
2023/09/04 12:22:27;;;;;;;3.97;3.67;;;40.80;30.60;;;;;;4993894;28;20183;-64
2023/09/04 12:25:08;;;;;;;6.83;4.23;;;39.80;31.00;;;;;;4999954;28;20866;-64
2023/09/04 12:27:35;;;;;;;4.10;3.80;;;39.70;31.80;;;;;;4990004;28;20237;-64
2023/09/04 12:30:01;;;;;;;3.30;3.10;;;40.90;31.40;;;;;;4993394;28;20847;-64
2023/09/04 12:32:27;;;;;;;3.77;3.57;;;40.50;30.20;;;;;;4994399;28;20422;-64
2023/09/04 12:35:09;;;;;;;4.00;3.60;;;40.50;30.10;;;;;;4994226;28;20184;-64
2023/09/04 12:37:36;;;;;;;3.63;2.90;;;40.60;31.10;;;;;;5002762;28;20230;-64
2023/09/04 12:40:02;;;;;;;4.00;3.67;;;41.60;30.00;;;;;;5009469;28;20476;-64
2023/09/04 12:42:28;;;;;;;4.10;3.77;;;43.00;30.00;;;;;;5013920;28;20783;-64
2023/09/04 12:44:54;;;;;;;4.17;3.87;;;43.70;28.90;;;;;;5014298;28;20420;-64
2023/09/04 12:47:20;;;;;;;3.80;3.60;;;43.00;28.10;;;;;;5010267;28;20637;-64